createdAt,value
2023-04-15T00:00:50.905Z,4.55
2023-04-15T00:05:52.748Z,4.97
2023-04-15T00:10:54.728Z,5.07
2023-04-15T00:15:56.601Z,5.22
2023-04-15T00:20:58.933Z,5.30
2023-04-15T00:26:00.729Z,5.00
2023-04-15T00:31:02.627Z,4.72
2023-04-15T00:36:06.257Z,4.30
2023-04-15T00:41:09.046Z,5.63
2023-04-15T00:46:14.332Z,6.05
2023-04-15T00:51:16.414Z,6.18
2023-04-15T00:56:20.202Z,4.50
2023-04-15T01:01:24.059Z,5.00
2023-04-15T01:06:27.297Z,4.40
2023-04-15T01:11:29.588Z,4.60
2023-04-15T01:16:32.096Z,4.00
2023-04-15T01:21:36.200Z,3.30
2023-04-15T01:26:40.983Z,4.25
2023-04-15T01:31:54.154Z,4.38
2023-04-15T01:36:55.973Z,5.75
2023-04-15T01:41:58.132Z,6.03
2023-04-15T01:47:00.671Z,5.32
2023-04-15T01:52:02.459Z,4.97
2023-04-15T01:57:04.839Z,4.95
2023-04-15T02:02:06.731Z,5.43
2023-04-15T02:07:08.567Z,5.30
2023-04-15T02:12:10.612Z,5.40
2023-04-15T02:17:12.622Z,4.88
2023-04-15T02:22:18.451Z,4.30
2023-04-15T02:27:22.611Z,4.47
2023-04-15T02:32:25.584Z,4.28
2023-04-15T02:37:31.100Z,3.80
2023-04-15T02:42:33.232Z,3.20
2023-04-15T02:47:36.674Z,3.78
2023-04-15T02:52:41.909Z,3.03
2023-04-15T02:57:44.395Z,2.80
2023-04-15T03:02:47.166Z,2.08
2023-04-15T03:07:49.404Z,2.40
2023-04-15T03:12:51.652Z,2.22
2023-04-15T03:17:56.520Z,2.50
2023-04-15T03:22:59.856Z,2.13
2023-04-15T03:28:01.862Z,2.30
2023-04-15T03:33:03.849Z,2.33
2023-04-15T03:38:05.871Z,2.85
2023-04-15T03:43:07.688Z,1.50
2023-04-15T03:48:17.191Z,2.15
2023-04-15T03:53:22.702Z,1.60
2023-04-15T03:58:24.677Z,1.38
2023-04-15T04:03:27.418Z,1.10
2023-04-15T04:08:29.346Z,0.60
2023-04-15T04:13:31.110Z,0.43
2023-04-15T04:18:33.374Z,0.40
2023-04-15T04:23:39.457Z,0.50
2023-04-15T04:28:41.562Z,0.50
2023-04-15T04:33:43.488Z,0.50
2023-04-15T04:38:45.312Z,0.30
2023-04-15T04:43:47.126Z,0.60
2023-04-15T04:48:48.940Z,16.40
2023-04-15T04:53:50.858Z,2.55
2023-04-15T04:58:52.955Z,1.25
2023-04-15T05:03:54.990Z,1.40
2023-04-15T05:08:56.963Z,1.00
2023-04-15T05:13:59.852Z,0.60
2023-04-15T05:19:01.864Z,1.92
2023-04-15T05:24:04.448Z,1.63
2023-04-15T05:29:06.255Z,2.10
2023-04-15T05:34:08.306Z,2.78
2023-04-15T05:39:10.093Z,5.63
2023-04-15T05:44:11.966Z,3.13
2023-04-15T05:49:13.729Z,35.83
2023-04-15T05:54:16.948Z,38.45
2023-04-15T05:59:20.138Z,1.90
2023-04-15T06:04:22.825Z,2.70
2023-04-15T06:09:24.835Z,0.80
2023-04-15T06:14:26.570Z,5.22
2023-04-15T06:19:28.309Z,4.35
2023-04-15T06:24:30.426Z,2.40
2023-04-15T06:29:32.255Z,0.60
2023-04-15T06:34:34.474Z,0.50
2023-04-15T06:39:36.431Z,0.50
2023-04-15T06:44:38.402Z,0.30
2023-04-15T06:49:40.520Z,0.30
2023-04-15T06:54:42.933Z,0.77
2023-04-15T06:59:44.710Z,0.85
2023-04-15T07:04:46.546Z,12.07
2023-04-15T07:09:48.355Z,9.60
2023-04-15T07:14:50.134Z,7.47
2023-04-15T07:19:52.063Z,6.30
2023-04-15T07:24:53.847Z,3.60
2023-04-15T07:29:55.640Z,0.95
2023-04-15T07:34:57.654Z,1.75
2023-04-15T07:39:59.426Z,1.13
2023-04-15T07:45:01.282Z,0.70
2023-04-15T07:50:03.183Z,1.10
2023-04-15T07:55:08.931Z,1.00
2023-04-15T08:00:11.402Z,1.10
2023-04-15T08:05:16.065Z,1.33
2023-04-15T08:10:18.018Z,1.00
2023-04-15T08:15:20.535Z,0.80
2023-04-15T08:20:22.297Z,0.80
2023-04-15T08:25:24.113Z,0.85
2023-04-15T08:30:26.043Z,0.80
2023-04-15T08:35:27.812Z,1.00
2023-04-15T08:40:40.913Z,0.88
2023-04-15T08:45:46.214Z,0.77
2023-04-15T08:50:49.116Z,0.90
2023-04-15T08:55:52.883Z,0.65
2023-04-15T09:00:56.629Z,4.78
2023-04-15T09:05:59.389Z,0.63
2023-04-15T09:11:02.941Z,0.45
2023-04-15T09:16:06.291Z,0.63
2023-04-15T09:21:11.289Z,0.73
2023-04-15T09:26:13.503Z,0.70
2023-04-15T09:31:15.534Z,0.45
2023-04-15T09:36:17.325Z,0.30
2023-04-15T09:41:19.669Z,0.40
2023-04-15T09:46:40.339Z,0.50
2023-04-15T09:51:48.533Z,0.20
2023-04-15T09:56:56.191Z,0.30
2023-04-15T10:01:58.452Z,0.30
2023-04-15T10:07:02.535Z,0.40
2023-04-15T10:12:06.146Z,0.55
2023-04-15T10:17:11.038Z,3.35
2023-04-15T10:22:14.362Z,0.40
2023-04-15T10:27:18.228Z,0.55
2023-04-15T10:32:21.446Z,0.40
2023-04-15T10:37:35.935Z,0.63
2023-04-15T10:42:37.902Z,0.52
2023-04-15T10:47:39.717Z,0.60
2023-04-15T10:52:42.133Z,0.60
2023-04-15T10:57:44.933Z,0.70
2023-04-15T11:02:51.837Z,0.82
2023-04-15T11:07:58.649Z,0.87
2023-04-15T11:13:27.082Z,1.30
2023-04-15T11:23:34.341Z,0.73
2023-04-15T11:28:38.289Z,1.33
2023-04-15T11:34:01.452Z,1.23
2023-04-15T11:39:07.184Z,1.30
2023-04-15T11:44:18.911Z,1.30
2023-04-15T11:49:34.954Z,1.20
2023-04-15T11:54:37.536Z,1.10
2023-04-15T11:59:46.351Z,1.17
2023-04-15T12:04:48.318Z,1.38
2023-04-15T12:09:56.697Z,1.75
2023-04-15T12:14:59.443Z,1.63
2023-04-15T12:20:01.209Z,1.77
2023-04-15T12:25:03.335Z,1.65
2023-04-15T12:30:06.168Z,2.30
2023-04-15T12:35:09.205Z,1.38
2023-04-15T12:40:11.279Z,1.30
2023-04-15T12:45:13.082Z,1.63
2023-04-15T12:50:14.852Z,1.20
2023-04-15T12:55:19.593Z,0.82
2023-04-15T13:00:21.355Z,1.60
2023-04-15T13:05:23.174Z,1.40
2023-04-15T13:10:24.947Z,1.60
2023-04-15T13:15:26.672Z,1.90
2023-04-15T13:20:28.586Z,1.85
2023-04-15T13:25:30.745Z,1.85
2023-04-15T13:30:32.554Z,1.80
2023-04-15T13:35:34.589Z,1.80
2023-04-15T13:40:36.455Z,1.67
2023-04-15T13:45:38.741Z,1.70
2023-04-15T13:50:45.336Z,2.10
2023-04-15T13:55:47.230Z,2.03
2023-04-15T14:00:49.020Z,2.75
2023-04-15T14:05:56.127Z,2.47
2023-04-15T14:10:58.268Z,2.67
2023-04-15T14:16:00.659Z,3.28
2023-04-15T14:21:02.716Z,2.92
2023-04-15T14:26:05.026Z,2.88
2023-04-15T14:31:07.284Z,2.60
2023-04-15T14:36:09.790Z,3.10
2023-04-15T14:41:12.293Z,2.80
2023-04-15T14:46:14.535Z,2.55
2023-04-15T14:51:16.343Z,2.67
2023-04-15T14:56:18.267Z,3.55
2023-04-15T15:01:20.832Z,3.78
2023-04-15T15:06:22.840Z,4.38
2023-04-15T15:11:24.644Z,4.03
2023-04-15T15:16:27.759Z,4.30
2023-04-15T15:21:29.623Z,4.30
2023-04-15T15:26:31.697Z,4.75
2023-04-15T15:31:35.108Z,4.53
2023-04-15T15:36:36.883Z,4.07
2023-04-15T15:41:38.714Z,4.50
2023-04-15T15:46:40.812Z,5.13
2023-04-15T15:51:42.768Z,5.50
2023-04-15T15:56:44.972Z,5.35
2023-04-15T16:01:48.320Z,5.15
2023-04-15T16:06:50.428Z,5.72
2023-04-15T16:11:52.270Z,5.57
2023-04-15T16:16:54.070Z,6.43
2023-04-15T16:21:56.251Z,5.88
2023-04-15T16:26:59.308Z,5.85
2023-04-15T16:32:01.113Z,5.90
2023-04-15T16:37:03.883Z,4.97
2023-04-15T16:42:05.638Z,5.75
2023-04-15T16:47:09.670Z,6.10
2023-04-15T16:52:11.387Z,6.60
2023-04-15T16:57:13.228Z,7.75
2023-04-15T17:02:15.598Z,7.93
2023-04-15T17:07:17.434Z,8.40
2023-04-15T17:12:19.202Z,7.70
2023-04-15T17:17:22.465Z,7.85
2023-04-15T17:22:24.356Z,7.28
2023-04-15T17:27:28.682Z,10.57
2023-04-15T17:32:34.193Z,6.40
2023-04-15T17:37:36.289Z,5.82
2023-04-15T17:42:38.056Z,8.02
2023-04-15T17:47:39.999Z,6.15
2023-04-15T17:52:41.991Z,7.28
2023-04-15T17:57:46.367Z,5.70
2023-04-15T18:02:48.843Z,6.53
2023-04-15T18:07:52.535Z,6.90
2023-04-15T18:12:54.282Z,8.65
2023-04-15T18:17:56.122Z,9.70
2023-04-15T18:22:58.036Z,10.95
2023-04-15T18:28:00.089Z,10.00
2023-04-15T18:33:01.932Z,9.50
2023-04-15T18:38:03.781Z,9.45
2023-04-15T18:43:05.646Z,9.95
2023-04-15T18:48:08.637Z,7.28
2023-04-15T18:53:11.517Z,7.13
2023-04-15T18:58:13.313Z,7.65
2023-04-15T19:03:15.094Z,7.55
2023-04-15T19:08:18.039Z,7.80
2023-04-15T19:13:21.256Z,8.32
2023-04-15T19:18:23.114Z,7.95
2023-04-15T19:23:25.051Z,6.32
2023-04-15T19:28:28.297Z,5.65
2023-04-15T19:33:31.555Z,8.82
2023-04-15T19:38:37.766Z,7.63
2023-04-15T19:43:39.576Z,8.02
2023-04-15T19:48:41.365Z,6.47
2023-04-15T19:53:43.580Z,6.97
2023-04-15T19:58:47.470Z,7.20
2023-04-15T20:03:49.412Z,6.35
2023-04-15T20:08:51.832Z,8.52
2023-04-15T20:13:53.619Z,7.35
2023-04-15T20:18:55.471Z,8.55
2023-04-15T20:23:57.308Z,7.63
2023-04-15T20:29:00.412Z,6.47
2023-04-15T20:34:02.343Z,6.60
2023-04-15T20:39:04.501Z,7.25
2023-04-15T20:44:06.505Z,6.72
2023-04-15T20:49:10.570Z,6.00
2023-04-15T20:54:12.335Z,7.32
2023-04-15T20:59:14.205Z,7.72
2023-04-15T21:04:16.384Z,8.07
2023-04-15T21:09:18.814Z,7.35
2023-04-15T21:14:20.574Z,8.20
2023-04-15T21:19:22.292Z,7.35
2023-04-15T21:24:24.077Z,7.47
2023-04-15T21:29:26.081Z,6.70
2023-04-15T21:34:27.847Z,6.38
2023-04-15T21:39:29.638Z,6.60
2023-04-15T21:44:31.367Z,7.57
2023-04-15T21:49:33.234Z,6.97
2023-04-15T21:54:36.789Z,5.50
2023-04-15T21:59:38.645Z,6.63
2023-04-15T22:04:40.446Z,7.75
2023-04-15T22:09:42.196Z,6.40
2023-04-15T22:14:44.021Z,5.97
2023-04-15T22:19:46.769Z,6.55
2023-04-15T22:24:48.500Z,5.95
2023-04-15T22:29:50.224Z,6.72
2023-04-15T22:34:52.344Z,5.38
2023-04-15T22:39:54.107Z,5.50
2023-04-15T22:44:56.076Z,7.80
2023-04-15T22:49:57.883Z,7.82
2023-04-15T22:54:59.795Z,6.00
2023-04-15T23:00:04.406Z,5.13
2023-04-15T23:05:12.588Z,5.25
2023-04-15T23:10:15.693Z,5.25
2023-04-15T23:15:19.613Z,4.93
2023-04-15T23:20:21.379Z,5.63
2023-04-15T23:25:23.181Z,6.72
2023-04-15T23:30:24.968Z,5.13
2023-04-15T23:35:27.334Z,5.65
2023-04-15T23:40:29.094Z,5.47
2023-04-15T23:45:30.854Z,6.22
2023-04-15T23:50:32.586Z,6.43
2023-04-15T23:55:34.538Z,7.68
